ESOW/VST METAR and TAF weather

Enter ICAO airport designator
Station Type Date Time Source
ESOW METAR 2018/07/20 14:20 UTC NOAA

ESOW 201420Z 23004KT 190V270 CAVOK 29/12 Q1008


Station Type Date Time Source
ESOW Decoded METAR 2018/07/20 14:20 UTC NOAA

Vasteras / Hasslo, Sweden (ESOW) 59-35N 016-38E 31M
Jul 20, 2018 - 10:20 AM EDT / 2018.07.20 1420 UTC
Wind: from the SW (230 degrees) at 5 MPH (4 KT) (direction variable):0
Visibility: greater than 7 mile(s):0
Temperature: 84 F (29 C)
Dew Point: 53 F (12 C)
Relative Humidity: 34%
Pressure (altimeter): 29.77 in. Hg (1008 hPa)
ob: ESOW 201420Z 23004KT 190V270 CAVOK 29/12 Q1008
cycle: 14

Station Type Date Time Source
ESOW TAF 2016/10/26 04:36 UTC NOAA

TAF TAF ESOW 260330Z 2604/2624 VRB02KT CAVOK PROB40 2604/2607 1000 BCFG


Example: see airport list